地図

経路データ

SID SEASON NUMBER BASIN SUBBASIN NAME ISO_TIME NATURE LAT LON WMO_WIND WMO_PRES WMO_AGENCY TRACK_TYPE DIST2LAND LANDFALL IFLAG USA_AGENCY USA_ATCF_ID USA_LAT USA_LON USA_RECORD USA_STATUS USA_WIND USA_PRES USA_SSHS USA_R34_NE USA_R34_SE USA_R34_SW USA_R34_NW USA_R50_NE USA_R50_SE USA_R50_SW USA_R50_NW USA_R64_NE USA_R64_SE USA_R64_SW USA_R64_NW USA_POCI USA_ROCI USA_RMW USA_EYE TOKYO_LAT TOKYO_LON TOKYO_GRADE TOKYO_WIND TOKYO_PRES TOKYO_R50_DIR TOKYO_R50_LONG TOKYO_R50_SHORT TOKYO_R30_DIR TOKYO_R30_LONG TOKYO_R30_SHORT TOKYO_LAND CMA_LAT CMA_LON CMA_CAT CMA_WIND CMA_PRES HKO_LAT HKO_LON HKO_CAT HKO_WIND HKO_PRES NEWDELHI_LAT NEWDELHI_LON NEWDELHI_GRADE NEWDELHI_WIND NEWDELHI_PRES NEWDELHI_CI NEWDELHI_DP NEWDELHI_POCI REUNION_LAT REUNION_LON REUNION_TYPE REUNION_WIND REUNION_PRES REUNION_TNUM REUNION_CI REUNION_RMW REUNION_R34_NE REUNION_R34_SE REUNION_R34_SW REUNION_R34_NW REUNION_R50_NE REUNION_R50_SE REUNION_R50_SW REUNION_R50_NW REUNION_R64_NE REUNION_R64_SE REUNION_R64_SW REUNION_R64_NW BOM_LAT BOM_LON BOM_TYPE BOM_WIND BOM_PRES BOM_TNUM BOM_CI BOM_RMW BOM_R34_NE BOM_R34_SE BOM_R34_SW BOM_R34_NW BOM_R50_NE BOM_R50_SE BOM_R50_SW BOM_R50_NW BOM_R64_NE BOM_R64_SE BOM_R64_SW BOM_R64_NW BOM_ROCI BOM_POCI BOM_EYE BOM_POS_METHOD BOM_PRES_METHOD NADI_LAT NADI_LON NADI_CAT NADI_WIND NADI_PRES WELLINGTON_LAT WELLINGTON_LON WELLINGTON_WIND WELLINGTON_PRES DS824_LAT DS824_LON DS824_STAGE DS824_WIND DS824_PRES TD9636_LAT TD9636_LON TD9636_STAGE TD9636_WIND TD9636_PRES TD9635_LAT TD9635_LON TD9635_WIND TD9635_PRES TD9635_ROCI NEUMANN_LAT NEUMANN_LON NEUMANN_CLASS NEUMANN_WIND NEUMANN_PRES MLC_LAT MLC_LON MLC_CLASS MLC_WIND MLC_PRES USA_GUST BOM_GUST BOM_GUST_PER REUNION_GUST REUNION_GUST_PER USA_SEAHGT USA_SEARAD_NE USA_SEARAD_SE USA_SEARAD_SW USA_SEARAD_NW STORM_SPEED STORM_DIR
1969355N04091 1969 118 NI BB NOT_NAMED 1969-12-20 18:00:00 TS 3.90000 91.3000 main 460 460 O________O____ jtwc_io IO141969 3.90000 91.3000 -1 3.90000 91.3000 TC 2 290
1969355N04091 1969 118 NI BB NOT_NAMED 1969-12-20 21:00:00 TS 3.94000 91.1850 main 470 467 P________P____ IO141969 3.94000 91.1850 -1 3.94000 91.1850 TC 3 289
1969355N04091 1969 118 NI BB NOT_NAMED 1969-12-21 00:00:00 TS 4.00000 91.0000 main 488 488 O________O____ jtwc_io IO141969 4.00000 91.0000 -1 4.00000 91.0000 TC 25 5 287
1969355N04091 1969 118 NI BB NOT_NAMED 1969-12-21 03:00:00 TS 4.09333 90.6956 main 517 517 P________PO___ IO141969 4.09249 90.6950 -1 4.09249 90.6950 TC 25 4.10000 90.7000 1 7 286
1969355N04091 1969 118 NI BB NOT_NAMED 1969-12-21 06:00:00 TS 4.19942 90.2919 main 557 557 O________OP___ jtwc_io IO141969 4.20000 90.3000 -1 4.20000 90.3000 TC 25 4.19710 90.2595 1 9 284
1969355N04091 1969 118 NI BB NOT_NAMED 1969-12-21 09:00:00 TS 4.29871 89.8487 main 609 609 P________PP___ IO141969 4.30001 89.8575 -1 4.30001 89.8575 TC 25 4.29526 89.8251 1 9 283
1969355N04091 1969 118 NI BB NOT_NAMED 1969-12-21 12:00:00 TS 4.39859 89.4011 main 651 651 O________OP___ jtwc_io IO141969 4.40000 89.4000 -1 4.40000 89.4000 TC 25 4.39578 89.4032 1 9 283
1969355N04091 1969 118 NI BB NOT_NAMED 1969-12-21 15:00:00 TS 4.49499 88.9900 main 693 693 P________PO___ IO141969 4.49248 88.9850 -1 4.49248 88.9850 TC 25 4.50000 89.0000 1 8 284
1969355N04091 1969 118 NI BB NOT_NAMED 1969-12-21 18:00:00 TS 4.60319 88.6062 main 736 736 O________OP___ jtwc_io IO141969 4.60000 88.6000 -1 4.60000 88.6000 TC 25 4.60956 88.6187 1 8 288
1969355N04091 1969 118 NI BB NOT_NAMED 1969-12-21 21:00:00 TS 4.73741 88.2499 main 743 704 P________PP___ IO141969 4.74246 88.2500 -1 4.74246 88.2500 TC 25 4.72732 88.2499 1 8 292
1969355N04091 1969 118 NI BB NOT_NAMED 1969-12-22 00:00:00 TS 4.88548 87.8937 main 704 659 O________OP___ jtwc_io IO141969 4.90000 87.9000 -1 4.90000 87.9000 TC 25 4.85643 87.8811 1 8 292
1969355N04091 1969 118 NI BB NOT_NAMED 1969-12-22 03:00:00 TS 5.03332 87.5100 main 659 609 P________PO___ IO141969 5.04997 87.5150 -1 5.04997 87.5150 TC 25 5.00000 87.5000 1 9 291
1969355N04091 1969 118 NI BB NOT_NAMED 1969-12-22 06:00:00 TS 5.19370 87.0776 main 609 553 O________OP___ jtwc_io IO141969 5.20000 87.1000 -1 5.20000 87.1000 TC 25 5.18110 87.0327 1 10 290
1969355N04091 1969 118 NI BB NOT_NAMED 1969-12-22 09:00:00 TS 5.35760 86.6101 main 550 504 P________PP___ IO141969 5.35003 86.6350 -1 5.35003 86.6350 TC 30 5.37275 86.5603 1 10 290
1969355N04091 1969 118 NI BB NOT_NAMED 1969-12-22 12:00:00 TS 5.51766 86.1776 main 504 455 O________OP___ jtwc_io IO141969 5.50000 86.2000 -1 5.50000 86.2000 TC 35 5.55299 86.1327 1 9 292
1969355N04091 1969 118 NI BB NOT_NAMED 1969-12-22 15:00:00 TS 5.68166 85.8217 main 455 430 P________PO___ IO141969 5.67249 85.8325 -1 5.67249 85.8325 TC 35 5.70000 85.8000 2 6 296
1969355N04091 1969 118 NI BB NOT_NAMED 1969-12-22 18:00:00 TS 5.79117 85.6148 main 430 430 O________OP___ jtwc_io IO141969 5.80000 85.6000 -1 5.80000 85.6000 TC 35 5.77352 85.6445 2 3 298
1969355N04091 1969 118 NI BB NOT_NAMED 1969-12-22 21:00:00 TS 5.80989 85.5791 main 430 430 P________PP___ IO141969 5.80747 85.5775 -1 5.80747 85.5775 TC 35 5.81473 85.5823 2 0 309
1969355N04091 1969 118 NI BB NOT_NAMED 1969-12-23 00:00:00 TS 5.81619 85.5846 main 430 416 O________OP___ jtwc_io IO141969 5.80000 85.6000 -1 5.80000 85.6000 TC 35 5.84858 85.5539 2 1 309
1969355N04091 1969 118 NI BB NOT_NAMED 1969-12-23 03:00:00 TS 5.88500 85.4867 main 416 392 P________PO___ IO141969 5.87750 85.4800 -1 5.87750 85.4800 TC 35 5.90000 85.5000 3 3 305
1969355N04091 1969 118 NI BB NOT_NAMED 1969-12-23 06:00:00 TS 6.00659 85.3052 main 392 367 O________OP___ jtwc_io IO141969 6.00000 85.3000 -1 6.00000 85.3000 TC 35 6.01976 85.3157 3 5 305
1969355N04091 1969 118 NI BB NOT_NAMED 1969-12-23 09:00:00 TS 6.15754 85.1001 main 364 340 P________PP___ IO141969 6.15751 85.1000 -1 6.15751 85.1000 TC 35 6.15760 85.1001 3 5 306
1969355N04091 1969 118 NI BB NOT_NAMED 1969-12-23 12:00:00 TS 6.29721 84.8948 main 340 316 O________OP___ jtwc_io IO141969 6.30000 84.9000 -1 6.30000 84.9000 TC 35 6.29164 84.8845 3 4 300
1969355N04091 1969 118 NI BB NOT_NAMED 1969-12-23 15:00:00 TS 6.37666 84.7233 main 316 305 P________PO___ IO141969 6.36499 84.7350 -1 6.36499 84.7350 TC 35 6.40000 84.7000 3 3 292
1969355N04091 1969 118 NI BB NOT_NAMED 1969-12-23 18:00:00 TS 6.41926 84.5923 main 305 292 O________OP___ jtwc_io IO141969 6.40000 84.6000 -1 6.40000 84.6000 TC 35 6.45777 84.5768 3 3 291
1969355N04091 1969 118 NI BB NOT_NAMED 1969-12-23 21:00:00 TS 6.46748 84.4817 main 292 281 P________PP___ IO141969 6.45750 84.4775 -1 6.45750 84.4775 TC 30 6.48745 84.4899 3 2 294
1969355N04091 1969 118 NI BB NOT_NAMED 1969-12-24 00:00:00 TS 6.49947 84.4110 main 281 281 O________OP___ jtwc_io IO141969 6.50000 84.4000 -1 6.50000 84.4000 TC 25 6.49841 84.4331 3 1 293
1969355N04091 1969 118 NI BB NOT_NAMED 1969-12-24 03:00:00 TS 6.50500 84.3900 main 281 281 P________PO___ IO141969 6.50750 84.3850 -1 6.50750 84.3850 TC 25 6.50000 84.4000 1 0 0
1969355N04091 1969 118 NI BB NOT_NAMED 1969-12-24 06:00:00 TS 6.50239 84.3928 main 281 281 O________OP___ jtwc_io IO141969 6.50000 84.4000 -1 6.50000 84.4000 TC 25 6.50718 84.3784 1 0 0
1969355N04091 1969 118 NI BB NOT_NAMED 1969-12-24 09:00:00 TS 6.50250 84.3925 main 281 281 P________PP___ IO141969 6.50000 84.4000 -1 6.50000 84.4000 TC 25 6.50749 84.3775 1 0 0
1969355N04091 1969 118 NI BB NOT_NAMED 1969-12-24 12:00:00 TS 6.50135 84.3959 main 281 281 O________OP___ jtwc_io IO141969 6.50000 84.4000 -1 6.50000 84.4000 TC 25 6.50406 84.3878 1 0 0
1969355N04091 1969 118 NI BB NOT_NAMED 1969-12-24 15:00:00 TS 6.50000 84.4000 main 281 281 P________PO___ IO141969 6.50000 84.4000 -1 6.50000 84.4000 TC 25 6.50000 84.4000 1 0 0
1969355N04091 1969 118 NI BB NOT_NAMED 1969-12-24 18:00:00 TS 6.50946 84.4163 main 281 281 O________OP___ jtwc_io IO141969 6.50000 84.4000 -1 6.50000 84.4000 TC 25 6.52838 84.4488 1 0 55
1969355N04091 1969 118 NI BB NOT_NAMED 1969-12-24 21:00:00 TS 6.52246 84.4350 main 281 281 P________PP___ IO141969 6.50750 84.4075 -1 6.50750 84.4075 TC 25 6.55238 84.4901 1 0 0
1969355N04091 1969 118 NI BB NOT_NAMED 1969-12-25 00:00:00 TS 6.51673 84.4288 main 281 281 O________OP___ jtwc_io IO141969 6.50000 84.4000 -1 6.50000 84.4000 TC 25 6.55020 84.4864 1 0 237
1969355N04091 1969 118 NI BB NOT_NAMED 1969-12-25 03:00:00 TS 6.49163 84.4067 main 281 273 P________PO___ IO141969 6.48744 84.4101 -1 6.48744 84.4101 TC 25 6.50000 84.4000 1 2 232
1969355N04091 1969 118 NI BB NOT_NAMED 1969-12-25 06:00:00 TS 6.38505 84.2580 main 273 238 O________OP___ jtwc_io IO141969 6.40000 84.3000 -1 6.40000 84.3000 TC 25 6.35514 84.1739 1 6 236
1969355N04091 1969 118 NI BB NOT_NAMED 1969-12-25 09:00:00 TS 6.16013 83.9090 main 238 210 P________PP___ IO141969 6.15760 83.9299 -1 6.15760 83.9299 TC 25 6.16520 83.8672 1 9 238
1969355N04091 1969 118 NI BB NOT_NAMED 1969-12-25 12:00:00 TS 5.92254 83.5090 main 210 183 O________OP___ jtwc_io IO141969 5.90000 83.5000 -1 5.90000 83.5000 TC 25 5.96763 83.5270 1 8 241
1969355N04091 1969 118 NI BB NOT_NAMED 1969-12-25 15:00:00 TS 5.77997 83.2184 main 183 169 P________PO___ IO141969 5.76995 83.2276 -1 5.76995 83.2276 TC 25 5.80000 83.2000 1 6 247
1969355N04091 1969 118 NI BB NOT_NAMED 1969-12-25 18:00:00 TS 5.70329 82.9899 main 169 151 O________OP___ jtwc_io IO141969 5.70000 83.0000 -1 5.70000 83.0000 TC 25 5.70988 82.9698 1 5 253
1969355N04091 1969 118 NI BB NOT_NAMED 1969-12-25 21:00:00 TS 5.64160 82.7526 main 158 134 P________PP___ IO141969 5.63499 82.7500 -1 5.63499 82.7500 TC 25 5.65483 82.7576 1 5 259
1969355N04091 1969 118 NI BB NOT_NAMED 1969-12-26 00:00:00 TS 5.60746 82.5139 main 134 120 O________OP___ jtwc_io IO141969 5.60000 82.5000 -1 5.60000 82.5000 TC 25 5.62237 82.5416 1 5 265
1969355N04091 1969 118 NI BB NOT_NAMED 1969-12-26 03:00:00 TS 5.59999 82.2717 main 120 102 P________PO___ IO141969 5.59998 82.2575 -1 5.59998 82.2575 TC 25 5.60000 82.3000 1 5 268
1969355N04091 1969 118 NI BB NOT_NAMED 1969-12-26 06:00:00 TS 5.59094 82.0066 main 102 80 O________OP___ jtwc_io IO141969 5.60000 82.0000 -1 5.60000 82.0000 TC 25 5.57734 82.0165 1 6 266
1969355N04091 1969 118 NI BB NOT_NAMED 1969-12-26 09:00:00 TS 5.55835 81.7046 main 80 79 P________PP___ IO141969 5.56254 81.7100 -1 5.56254 81.7100 TC 25 5.55275 81.6974 1 6 263
1969355N04091 1969 118 NI BB NOT_NAMED 1969-12-26 12:00:00 TS 5.51339 81.3773 main 79 60 O________OP___ jtwc_io IO141969 5.50000 81.4000 -1 5.50000 81.4000 TC 25 5.52678 81.3546 1 7 265
1969355N04091 1969 118 NI BB NOT_NAMED 1969-12-26 15:00:00 NR 5.50000 81.0000 main 60 __________O___ IO141969 -1 TC 5.50000 81.0000 1 8 268

IBTrACS Databaseについて

本データベースは、米国NOAAが公開する1842年以降の世界の熱帯低気圧のベストトラックデータアーカイブInternational Best Track Archive for Climate Stewardship (IBTrACS)を、ウェブで閲覧しやすい形式に変換したものです。

最終更新日:2021-10-21